METAR AND TAF INFORMATION
METAR FOR WAJJ
ADDS - METARS form results

(2210 UTC 16 January 2019)
Data provider http://aviationweather.gov/metar/data/
 
METAR text: WAJJ 162200Z 30003KT 9999 SCT010 26/23 Q1006 NOSIG
Conditions at: WAJJ (JAYAPURA/SENTANI, ID) observed 2200 UTC 16 January 2019
Temperature: 26.0°C (79°F)
Dewpoint: 23.0°C (73°F) [RH = 84%]
Pressure (altimeter): 29.70 inches Hg (1006.0 mb)
Winds: from the WNW (300 degrees) at 3 MPH (3 knots; 1.5 m/s)
Visibility: 6 or more miles (10+ km)
Ceiling: at least 12,000 feet AGL
Clouds: scattered clouds at 1000 feet AGL
Weather: no significant weather observed at this time

METAR text: WAJJ 162130Z 03002KT 9999 FEW010 26/23 Q1006 NOSIG
Conditions at: WAJJ (JAYAPURA/SENTANI, ID) observed 2130 UTC 16 January 2019
Temperature: 26.0°C (79°F)
Dewpoint: 23.0°C (73°F) [RH = 84%]
Pressure (altimeter): 29.70 inches Hg (1006.0 mb)
Winds: from the NNE (30 degrees) at 2 MPH (2 knots; 1.0 m/s)
Visibility: 6 or more miles (10+ km)
Ceiling: at least 12,000 feet AGL
Clouds: few clouds at 1000 feet AGL
Weather: no significant weather observed at this time

 AIRPORT MAP

 RUNWAY INFORMATION
Runway 12 Runway length 7161 ft Runway width 148 ft
Runway elevation 292 ft Runway displaced threshold 0 ft Runway heading 127
Runway 30 Runway length 7161 ft Runway width 148 ft
Runway elevation 289 ft Runway displaced threshold 0 ft Runway heading 307

 AIRPORT FREQUENCIES
Type APP Name JAYAPURA A Frequency 119.1 MHZ
Type ATIS Name ATIS Frequency 128.8 MHZ
Type INFO Name JAYAPURA I Frequency 295.6 MHZ
Type TWR Name TWR Frequency 118.1 MHZ

 AIRPORT NEAR NAVIGATION AIDS
Type VOR-DME Name Jayapura Frequency 116200 KHZ
Type NDB Name Jayapura Frequency 395 KHZ



Powered by Virtual Airlines Manager [v2.6.2]